Time;durP1;ratioP1;P1;durP2;ratioP2;P2;SDS_P1;SDS_P2;PMS_P1;PMS_P2;Temp;Humidity;BMP_temperature;BMP_pressure;BME280_temperature;BME280_humidity;BME280_pressure;Samples;Min_cycle;Max_cycle;Signal;HPM_P1;HPM_P2
2023/05/10 00:00:12;;;;;;;;;;;15.40;97.70;;;;;;5091973;28;19916;-66
2023/05/10 00:02:38;;;;;;;;;;;15.50;97.60;;;;;;5091741;28;19908;-67
2023/05/10 00:05:05;;;;;;;;;;;15.70;97.20;;;;;;5091499;28;19938;-67
2023/05/10 00:07:32;;;;;;;;;;;15.80;97.60;;;;;;5091327;28;19908;-67
2023/05/10 00:09:58;;;;;;;;;;;15.90;97.00;;;;;;5091006;28;19926;-66
2023/05/10 00:12:25;;;;;;;;;;;15.90;96.70;;;;;;5090401;28;19916;-68
2023/05/10 00:14:51;;;;;;;;;;;16.10;96.70;;;;;;5090588;28;19919;-68
2023/05/10 00:17:18;;;;;;;;;;;16.10;96.60;;;;;;5091686;28;19943;-66
2023/05/10 00:19:45;;;;;;;;;;;16.20;96.70;;;;;;5091922;28;19981;-67
2023/05/10 00:22:11;;;;;;;;;;;16.30;96.70;;;;;;5090897;28;20493;-67
2023/05/10 00:24:38;;;;;;;;;;;16.40;96.50;;;;;;5091111;28;20389;-67
2023/05/10 00:27:04;;;;;;;;;;;16.50;96.10;;;;;;5092068;28;19908;-68
2023/05/10 00:29:32;;;;;;;;;;;16.70;96.00;;;;;;5091699;28;20241;-66
2023/05/10 00:31:59;;;;;;;;;;;16.90;95.00;;;;;;5074722;28;19915;-67
2023/05/10 00:34:27;;;;;;;;;;;16.90;95.30;;;;;;5091326;28;19997;-67
2023/05/10 00:36:53;;;;;;;;;;;16.90;95.20;;;;;;5091987;28;19915;-67
2023/05/10 00:39:20;;;;;;;;;;;17.00;95.10;;;;;;5091390;28;19946;-66
2023/05/10 00:41:47;;;;;;;;;;;17.00;94.50;;;;;;5090994;28;20277;-67
2023/05/10 00:44:13;;;;;;;;;;;17.10;94.20;;;;;;5091329;28;19918;-67
2023/05/10 00:46:40;;;;;;;;;;;17.20;93.80;;;;;;5091125;28;20007;-67
2023/05/10 00:49:07;;;;;;;;;;;17.30;93.60;;;;;;5091655;28;19923;-66
2023/05/10 00:51:34;;;;;;;;;;;17.40;93.40;;;;;;5090801;28;19933;-66
2023/05/10 00:54:00;;;;;;;;;;;17.50;92.80;;;;;;5084353;28;19912;-66
2023/05/10 00:56:29;;;;;;;;;;;17.60;92.60;;;;;;5091273;28;19909;-68
2023/05/10 00:58:56;;;;;;;;;;;17.70;91.90;;;;;;5091339;28;19917;-67
2023/05/10 01:01:22;;;;;;;;;;;17.70;91.60;;;;;;5091222;28;19958;-68
2023/05/10 01:03:49;;;;;;;;;;;17.80;91.80;;;;;;5072838;28;19977;-66
2023/05/10 01:06:16;;;;;;;;;;;17.80;91.90;;;;;;5090829;28;20406;-68
2023/05/10 01:08:43;;;;;;;;;;;17.90;91.30;;;;;;5091124;28;19916;-68
2023/05/10 01:11:09;;;;;;;;;;;18.00;91.50;;;;;;5094983;28;20452;-66
2023/05/10 01:13:37;;;;;;;;;;;18.10;91.80;;;;;;5091179;28;19912;-66
2023/05/10 01:16:04;;;;;;;;;;;18.10;91.70;;;;;;5090835;28;20425;-67
2023/05/10 01:18:33;;;;;;;;;;;18.30;92.00;;;;;;5091276;28;19941;-66
2023/05/10 01:21:20;;;;;;;;;;;18.40;91.60;;;;;;5090628;28;19912;-66
2023/05/10 01:24:08;;;;;;;;;;;18.50;91.70;;;;;;5087921;28;19948;-66
2023/05/10 01:26:37;;;;;;;;;;;18.60;91.40;;;;;;5087397;28;19920;-66
2023/05/10 01:29:10;;;;;;;;;;;18.70;90.90;;;;;;5092862;28;19939;-66
2023/05/10 01:31:39;;;;;;;;;;;18.80;91.00;;;;;;5092730;28;19916;-66
2023/05/10 01:34:32;;;;;;;;;;;18.80;90.90;;;;;;5093043;28;19923;-67
2023/05/10 01:37:02;;;;;;;;;;;18.90;90.90;;;;;;5036164;28;19912;-67
2023/05/10 01:39:28;;;;;;;;;;;19.10;90.60;;;;;;5093770;28;19961;-68
2023/05/10 01:41:58;;;;;;;;;;;19.10;90.30;;;;;;5093965;28;19938;-67
2023/05/10 01:44:27;;;;;;;;;;;19.10;90.20;;;;;;5092420;28;20262;-67
2023/05/10 01:46:58;;;;;;;;;;;19.30;90.00;;;;;;5094117;28;19908;-67
2023/05/10 01:49:27;;;;;;;;;;;19.40;90.10;;;;;;5094707;28;19966;-67
2023/05/10 01:51:54;;;;;;;;;;;19.50;90.00;;;;;;5093251;28;19912;-67
2023/05/10 01:54:22;;;;;;;;;;;19.70;89.70;;;;;;5093970;28;19918;-67
2023/05/10 01:56:53;;;;;;;;;;;19.80;88.40;;;;;;5093558;28;19958;-67
2023/05/10 01:59:20;;;;;;;;;;;19.80;87.50;;;;;;5093726;28;20015;-67
2023/05/10 02:01:48;;;;;;;;;;;19.90;87.50;;;;;;5093119;28;19916;-68
2023/05/10 02:04:16;;;;;;;;;;;19.90;88.60;;;;;;5094292;28;20089;-67
2023/05/10 02:06:43;;;;;;;;;;;20.00;87.80;;;;;;5093877;28;19987;-67
2023/05/10 02:09:11;;;;;;;;;;;20.10;87.80;;;;;;5094439;28;19963;-67
2023/05/10 02:11:38;;;;;;;;;;;20.10;88.00;;;;;;5093160;28;19920;-65
2023/05/10 02:14:08;;;;;;;;;;;20.10;87.70;;;;;;5094021;28;19908;-66
2023/05/10 02:16:35;;;;;;;;;;;20.10;88.10;;;;;;5093052;28;19923;-67
2023/05/10 02:19:02;;;;;;;;;;;20.00;88.10;;;;;;5094077;28;20007;-66
2023/05/10 02:21:30;;;;;;;;;;;20.00;89.50;;;;;;5093820;28;19919;-67
2023/05/10 02:23:58;;;;;;;;;;;19.90;88.00;;;;;;5093594;28;19920;-68
2023/05/10 02:26:25;;;;;;;;;;;19.90;87.70;;;;;;5092918;28;20006;-67
2023/05/10 02:28:53;;;;;;;;;;;19.90;88.20;;;;;;5093704;28;19908;-67
2023/05/10 02:31:19;;;;;;;;;;;20.20;87.20;;;;;;5092617;28;20311;-67
2023/05/10 02:33:46;;;;;;;;;;;20.50;87.00;;;;;;5093306;28;20129;-67
2023/05/10 02:41:19;;;;;;;;;;;20.50;86.20;;;;;;5091323;28;19951;-68
2023/05/10 02:43:47;;;;;;;;;;;20.30;86.30;;;;;;5093501;28;19919;-67
2023/05/10 02:46:14;;;;;;;;;;;20.50;88.00;;;;;;5092980;28;19940;-67
2023/05/10 02:48:41;;;;;;;;;;;20.60;87.00;;;;;;5093365;28;19908;-67
2023/05/10 02:51:08;;;;;;;;;;;20.60;87.00;;;;;;5092585;28;20006;-67
2023/05/10 02:53:36;;;;;;;;;;;20.70;87.40;;;;;;5093344;28;19905;-68
2023/05/10 02:56:06;;;;;;;;;;;20.60;87.60;;;;;;5092353;28;19912;-68
2023/05/10 02:58:33;;;;;;;;;;;20.70;86.80;;;;;;5093013;28;19924;-68
2023/05/10 03:01:00;;;;;;;;;;;20.90;86.60;;;;;;5092872;28;19916;-68
2023/05/10 03:03:27;;;;;;;;;;;21.20;86.30;;;;;;5083269;28;19924;-68
2023/05/10 03:05:55;;;;;;;;;;;21.50;85.70;;;;;;5092507;28;19919;-67
2023/05/10 03:08:23;;;;;;;;;;;22.00;85.60;;;;;;5093221;28;19912;-66
2023/05/10 03:11:07;;;;;;;;;;;22.50;83.60;;;;;;5092467;28;19999;-67
2023/05/10 03:13:54;;;;;;;;;;;22.70;82.80;;;;;;5092767;28;19912;-67
2023/05/10 03:16:36;;;;;;;;;;;22.60;82.00;;;;;;5091950;28;19912;-67
2023/05/10 03:19:23;;;;;;;;;;;22.90;82.40;;;;;;5092892;28;20364;-67
2023/05/10 03:21:51;;;;;;;;;;;23.80;81.50;;;;;;5090757;28;19912;-66
2023/05/10 03:24:20;;;;;;;;;;;25.60;77.10;;;;;;5092451;28;19912;-66
2023/05/10 03:26:47;;;;;;;;;;;27.30;73.60;;;;;;5091461;28;19922;-66
2023/05/10 03:29:15;;;;;;;;;;;28.80;69.40;;;;;;5092554;28;20480;-66
2023/05/10 03:31:41;;;;;;;;;;;29.80;67.70;;;;;;5092452;28;20565;-67
2023/05/10 03:34:08;;;;;;;;;;;30.50;65.00;;;;;;5092255;28;20433;-66
2023/05/10 03:36:35;;;;;;;;;;;31.10;63.20;;;;;;5091819;28;19916;-66
2023/05/10 03:39:02;;;;;;;;;;;31.50;62.80;;;;;;5092465;28;19916;-66
2023/05/10 03:41:29;;;;;;;;;;;31.80;61.10;;;;;;5092356;28;19916;-67
2023/05/10 03:43:56;;;;;;;;;;;32.30;60.20;;;;;;5091396;28;19912;-67
2023/05/10 03:46:22;;;;;;;;;;;32.70;59.40;;;;;;5091276;28;19912;-66
2023/05/10 03:48:49;;;;;;;;;;;33.10;58.20;;;;;;5092251;28;19919;-66
2023/05/10 03:51:15;;;;;;;;;;;33.50;57.10;;;;;;5091207;28;19919;-66
2023/05/10 03:53:42;;;;;;;;;;;33.70;57.10;;;;;;5091677;28;19926;-66
2023/05/10 03:56:09;;;;;;;;;;;34.00;55.90;;;;;;5091486;28;19912;-66
2023/05/10 03:58:35;;;;;;;;;;;33.90;55.50;;;;;;5091568;28;19916;-68
2023/05/10 04:01:02;;;;;;;;;;;33.40;55.20;;;;;;5091744;28;19912;-66
2023/05/10 04:03:29;;;;;;;;;;;33.10;55.60;;;;;;5091183;28;19957;-67
2023/05/10 04:06:02;;;;;;;;;;;33.50;54.90;;;;;;5091967;28;19929;-66
2023/05/10 04:08:28;;;;;;;;;;;32.90;55.70;;;;;;5075759;28;19908;-66
2023/05/10 04:11:04;;;;;;;;;;;32.70;56.20;;;;;;5098931;28;20356;-66
2023/05/10 04:13:31;;;;;;;;;;;32.80;55.80;;;;;;5095775;28;19912;-68
2023/05/10 04:15:58;;;;;;;;;;;33.10;55.90;;;;;;5091870;28;19958;-67
2023/05/10 04:18:25;;;;;;;;;;;32.30;56.20;;;;;;5091510;28;20283;-67
2023/05/10 04:20:51;;;;;;;;;;;31.10;57.90;;;;;;5091744;28;19951;-67
2023/05/10 04:23:18;;;;;;;;;;;29.80;59.30;;;;;;5073160;28;19912;-67
2023/05/10 04:25:44;;;;;;;;;;;28.70;60.70;;;;;;5091443;28;19912;-66
2023/05/10 04:28:11;;;;;;;;;;;27.60;62.40;;;;;;5091631;28;19908;-66
2023/05/10 04:30:38;;;;;;;;;;;26.30;64.70;;;;;;5091902;28;19939;-66
2023/05/10 04:33:05;;;;;;;;;;;25.20;66.90;;;;;;5090965;28;19916;-66
2023/05/10 04:35:32;;;;;;;;;;;24.30;68.10;;;;;;5090788;28;19965;-66
2023/05/10 04:37:58;;;;;;;;;;;23.60;70.00;;;;;;5086341;28;20027;-67
2023/05/10 04:40:26;;;;;;;;;;;23.10;71.40;;;;;;5091605;28;19912;-64
2023/05/10 04:42:52;;;;;;;;;;;22.90;71.50;;;;;;5091507;28;20019;-65
2023/05/10 04:45:19;;;;;;;;;;;22.80;72.10;;;;;;5091411;28;19908;-66
2023/05/10 04:47:46;;;;;;;;;;;22.70;72.50;;;;;;5090579;28;19912;-67
2023/05/10 04:50:12;;;;;;;;;;;22.60;73.50;;;;;;5091487;28;19915;-66
2023/05/10 04:52:39;;;;;;;;;;;22.50;74.60;;;;;;5090589;28;19931;-66
2023/05/10 04:55:07;;;;;;;;;;;22.50;74.30;;;;;;5091864;28;19953;-66
2023/05/10 04:57:34;;;;;;;;;;;22.50;74.40;;;;;;5090806;28;20357;-67
2023/05/10 05:00:01;;;;;;;;;;;22.30;75.20;;;;;;5091496;28;19993;-65
2023/05/10 05:02:28;;;;;;;;;;;22.20;75.60;;;;;;5093910;28;19935;-65
2023/05/10 05:04:57;;;;;;;;;;;22.10;76.00;;;;;;5095143;28;19962;-65
2023/05/10 05:07:24;;;;;;;;;;;22.00;76.30;;;;;;5105046;28;19912;-66
2023/05/10 05:09:50;;;;;;;;;;;21.90;76.90;;;;;;5101987;28;20438;-65
2023/05/10 05:12:17;;;;;;;;;;;21.80;78.50;;;;;;5097593;28;19993;-65
2023/05/10 05:14:44;;;;;;;;;;;21.90;77.90;;;;;;5094715;28;20341;-67
2023/05/10 05:17:10;;;;;;;;;;;22.00;77.90;;;;;;5095015;28;19997;-66
2023/05/10 05:19:37;;;;;;;;;;;22.10;76.40;;;;;;5094406;28;20019;-67
2023/05/10 05:22:04;;;;;;;;;;;22.10;76.50;;;;;;5099707;28;19916;-68
2023/05/10 05:24:35;;;;;;;;;;;22.20;76.30;;;;;;5090559;28;19939;-68
2023/05/10 05:27:02;;;;;;;;;;;22.00;75.80;;;;;;5085899;28;19912;-66
2023/05/10 05:29:29;;;;;;;;;;;21.80;76.00;;;;;;5093348;28;20369;-69
2023/05/10 05:31:55;;;;;;;;;;;21.60;76.80;;;;;;5093519;28;19916;-69
2023/05/10 05:34:22;;;;;;;;;;;21.50;77.90;;;;;;5093602;28;19908;-68
2023/05/10 05:36:49;;;;;;;;;;;21.50;78.70;;;;;;5093785;28;20367;-68
2023/05/10 05:39:15;;;;;;;;;;;21.50;78.50;;;;;;5093062;28;19916;-68
2023/05/10 05:41:42;;;;;;;;;;;21.60;79.00;;;;;;5093794;28;20003;-69
2023/05/10 05:44:09;;;;;;;;;;;22.10;77.70;;;;;;5094458;28;19908;-70
2023/05/10 05:46:36;;;;;;;;;;;22.50;76.70;;;;;;5093513;28;19920;-68
2023/05/10 05:49:03;;;;;;;;;;;22.60;76.30;;;;;;5093478;28;19908;-68
2023/05/10 05:51:29;;;;;;;;;;;22.50;77.30;;;;;;5099966;28;20284;-68
2023/05/10 05:53:56;;;;;;;;;;;22.30;76.80;;;;;;5093644;28;19912;-67
2023/05/10 05:56:25;;;;;;;;;;;22.00;77.90;;;;;;5093421;28;19919;-67
2023/05/10 05:58:52;;;;;;;;;;;21.70;78.60;;;;;;5084531;28;20491;-68
2023/05/10 06:01:18;;;;;;;;;;;21.70;79.00;;;;;;5092154;28;19919;-67
2023/05/10 06:03:45;;;;;;;;;;;21.80;78.90;;;;;;5087708;28;19916;-65
2023/05/10 06:06:12;;;;;;;;;;;21.90;78.50;;;;;;5091783;28;19913;-67
2023/05/10 06:08:39;;;;;;;;;;;22.30;78.30;;;;;;5093064;28;19909;-68
2023/05/10 06:11:05;;;;;;;;;;;23.10;76.80;;;;;;5095389;28;20297;-68
2023/05/10 06:13:33;;;;;;;;;;;23.90;75.50;;;;;;5112804;28;19908;-67
2023/05/10 06:15:59;;;;;;;;;;;25.00;73.00;;;;;;5099182;28;19915;-67
2023/05/10 06:18:26;;;;;;;;;;;25.50;72.30;;;;;;5093253;28;20019;-65
2023/05/10 06:20:52;;;;;;;;;;;26.20;70.40;;;;;;5093001;28;20647;-68
2023/05/10 06:23:19;;;;;;;;;;;26.50;69.40;;;;;;5090305;28;19920;-66
2023/05/10 06:25:46;;;;;;;;;;;25.90;69.00;;;;;;5092249;28;20349;-67
2023/05/10 06:28:12;;;;;;;;;;;24.90;70.80;;;;;;5092607;28;19947;-66
2023/05/10 06:30:39;;;;;;;;;;;23.70;73.50;;;;;;5093260;28;19908;-67
2023/05/10 06:33:05;;;;;;;;;;;22.90;75.90;;;;;;5093070;28;19922;-66
2023/05/10 06:35:33;;;;;;;;;;;22.00;77.70;;;;;;5092621;28;19915;-67
2023/05/10 06:38:00;;;;;;;;;;;21.30;79.60;;;;;;5092022;28;20032;-67
2023/05/10 06:40:27;;;;;;;;;;;20.80;81.90;;;;;;5093019;28;19947;-66
2023/05/10 06:42:53;;;;;;;;;;;20.20;82.80;;;;;;5092431;28;19965;-67
2023/05/10 06:45:20;;;;;;;;;;;19.90;84.60;;;;;;5091911;28;20007;-67
2023/05/10 06:47:47;;;;;;;;;;;19.50;85.70;;;;;;5092029;28;19912;-66
2023/05/10 06:50:13;;;;;;;;;;;19.30;86.90;;;;;;5092630;28;19954;-66
2023/05/10 06:52:40;;;;;;;;;;;19.00;88.00;;;;;;5091965;28;19919;-67
2023/05/10 06:55:08;;;;;;;;;;;18.80;88.80;;;;;;5091423;28;19916;-66
2023/05/10 06:57:34;;;;;;;;;;;18.60;89.60;;;;;;5105229;28;19911;-66
2023/05/10 07:00:03;;;;;;;;;;;18.40;90.30;;;;;;5093385;28;19916;-67
2023/05/10 07:02:30;;;;;;;;;;;18.20;90.80;;;;;;5092151;28;19961;-68
2023/05/10 07:04:57;;;;;;;;;;;18.10;91.00;;;;;;5085015;28;20069;-67
2023/05/10 07:07:24;;;;;;;;;;;18.00;91.30;;;;;;5095616;28;20360;-67
2023/05/10 07:09:51;;;;;;;;;;;17.80;91.70;;;;;;5091785;28;19908;-68
2023/05/10 07:12:18;;;;;;;;;;;17.70;91.90;;;;;;5091818;28;19916;-68
2023/05/10 07:14:45;;;;;;;;;;;17.60;91.90;;;;;;5090763;28;19916;-71
2023/05/10 07:17:11;;;;;;;;;;;17.50;92.30;;;;;;5092370;28;19915;-70
2023/05/10 07:19:38;;;;;;;;;;;17.50;92.60;;;;;;5087546;28;20003;-67
2023/05/10 07:22:05;;;;;;;;;;;17.40;93.00;;;;;;5092658;28;19926;-70
2023/05/10 07:24:32;;;;;;;;;;;17.40;93.40;;;;;;5091774;28;20007;-68
2023/05/10 07:26:58;;;;;;;;;;;17.30;93.70;;;;;;5091947;28;20360;-68
2023/05/10 07:29:25;;;;;;;;;;;17.10;94.00;;;;;;5091628;28;19912;-68
2023/05/10 07:31:52;;;;;;;;;;;17.10;94.50;;;;;;5092174;28;19912;-68
2023/05/10 07:34:19;;;;;;;;;;;17.00;94.90;;;;;;5091541;28;19916;-68
2023/05/10 07:36:46;;;;;;;;;;;16.90;95.20;;;;;;5090870;28;19942;-68
2023/05/10 07:39:12;;;;;;;;;;;16.80;95.70;;;;;;5091668;28;19964;-67
2023/05/10 07:41:39;;;;;;;;;;;16.80;96.00;;;;;;5090100;28;19924;-69
2023/05/10 07:44:06;;;;;;;;;;;16.70;96.20;;;;;;5089710;28;19912;-68
2023/05/10 07:46:32;;;;;;;;;;;16.70;96.60;;;;;;5091034;28;19908;-67
2023/05/10 07:48:59;;;;;;;;;;;16.60;96.60;;;;;;5091206;28;20383;-68
2023/05/10 07:51:26;;;;;;;;;;;16.60;97.00;;;;;;5091114;28;19916;-68
2023/05/10 07:53:52;;;;;;;;;;;16.60;97.20;;;;;;5090914;28;19956;-68
2023/05/10 07:56:22;;;;;;;;;;;16.50;97.50;;;;;;5091262;28;19912;-68
2023/05/10 07:58:49;;;;;;;;;;;16.50;97.80;;;;;;5091966;28;19916;-68
2023/05/10 08:01:15;;;;;;;;;;;16.50;98.00;;;;;;5092417;28;19953;-68
2023/05/10 08:03:42;;;;;;;;;;;16.40;98.40;;;;;;5092043;28;19909;-69
2023/05/10 08:06:08;;;;;;;;;;;16.40;98.70;;;;;;5092228;28;20003;-69
2023/05/10 08:08:35;;;;;;;;;;;16.30;98.90;;;;;;5092094;28;19991;-69
2023/05/10 08:11:02;;;;;;;;;;;16.30;99.10;;;;;;5092708;28;19904;-69
2023/05/10 08:13:29;;;;;;;;;;;16.30;99.30;;;;;;5092362;28;19912;-68
2023/05/10 08:15:56;;;;;;;;;;;16.30;99.60;;;;;;5091563;28;19920;-67
2023/05/10 08:18:22;;;;;;;;;;;16.30;99.80;;;;;;5092065;28;20391;-68
2023/05/10 08:20:49;;;;;;;;;;;16.20;99.90;;;;;;5092369;28;20319;-69
2023/05/10 08:23:16;;;;;;;;;;;16.20;99.90;;;;;;5090682;28;20004;-71
2023/05/10 08:25:43;;;;;;;;;;;16.20;99.90;;;;;;5090520;28;20069;-69
2023/05/10 08:28:09;;;;;;;;;;;16.10;99.90;;;;;;5091393;28;19923;-69
2023/05/10 08:30:36;;;;;;;;;;;16.10;99.90;;;;;;5091565;28;19915;-68
2023/05/10 08:33:02;;;;;;;;;;;16.10;99.90;;;;;;5072674;28;19912;-70
2023/05/10 08:35:29;;;;;;;;;;;16.10;99.90;;;;;;5088879;28;19946;-69
2023/05/10 08:37:56;;;;;;;;;;;16.10;99.90;;;;;;5093916;28;20456;-67
2023/05/10 08:40:24;;;;;;;;;;;16.00;99.90;;;;;;5095068;28;19912;-68
2023/05/10 08:42:55;;;;;;;;;;;16.00;99.90;;;;;;5094802;28;20365;-70
2023/05/10 08:45:23;;;;;;;;;;;16.00;99.90;;;;;;5095230;28;19915;-69
2023/05/10 08:47:50;;;;;;;;;;;16.00;99.90;;;;;;5095899;28;19943;-68
2023/05/10 08:50:19;;;;;;;;;;;15.90;99.90;;;;;;5094989;28;19916;-67
2023/05/10 08:52:48;;;;;;;;;;;15.90;99.90;;;;;;5095218;28;19963;-69
2023/05/10 08:55:15;;;;;;;;;;;15.80;99.90;;;;;;5095042;28;19912;-68
2023/05/10 08:57:42;;;;;;;;;;;15.90;99.90;;;;;;5095207;28;20253;-67
2023/05/10 09:00:09;;;;;;;;;;;15.80;99.90;;;;;;5095374;28;19923;-67
2023/05/10 09:02:37;;;;;;;;;;;15.80;99.90;;;;;;5095058;28;20380;-69
2023/05/10 09:05:04;;;;;;;;;;;15.80;99.90;;;;;;5094977;28;20635;-67
2023/05/10 09:07:31;;;;;;;;;;;15.70;99.90;;;;;;5095430;28;20007;-69
2023/05/10 09:09:58;;;;;;;;;;;15.70;99.90;;;;;;5095038;28;19920;-66
2023/05/10 09:12:24;;;;;;;;;;;15.70;99.90;;;;;;5094939;28;19935;-66
2023/05/10 09:14:52;;;;;;;;;;;15.60;99.90;;;;;;5094679;28;19916;-68
2023/05/10 09:17:19;;;;;;;;;;;15.60;99.90;;;;;;5094968;28;19912;-66
2023/05/10 09:19:46;;;;;;;;;;;15.60;99.90;;;;;;5094823;28;19916;-68
2023/05/10 09:22:12;;;;;;;;;;;15.50;99.90;;;;;;5090740;28;19957;-68
2023/05/10 09:24:44;;;;;;;;;;;15.60;99.90;;;;;;5093600;28;19998;-67
2023/05/10 09:27:10;;;;;;;;;;;15.50;99.90;;;;;;5093433;28;19912;-67
2023/05/10 09:29:43;;;;;;;;;;;15.50;99.90;;;;;;5093777;28;19912;-67
2023/05/10 09:32:10;;;;;;;;;;;15.50;99.90;;;;;;5093405;28;21154;-67
2023/05/10 09:34:39;;;;;;;;;;;15.40;99.90;;;;;;5093994;28;20326;-68
2023/05/10 09:37:07;;;;;;;;;;;15.40;99.90;;;;;;5094544;28;19959;-66
2023/05/10 09:39:35;;;;;;;;;;;15.40;99.90;;;;;;5091983;28;20057;-67
2023/05/10 09:42:03;;;;;;;;;;;15.30;99.90;;;;;;5092798;28;19928;-67
2023/05/10 09:44:30;;;;;;;;;;;15.30;99.90;;;;;;5090246;28;19916;-67
2023/05/10 09:46:57;;;;;;;;;;;15.30;99.90;;;;;;5093266;28;19997;-67
2023/05/10 09:49:24;;;;;;;;;;;15.30;99.90;;;;;;5093561;28;19912;-68
2023/05/10 09:52:06;;;;;;;;;;;15.20;99.90;;;;;;5093812;28;19915;-67
2023/05/10 09:54:33;;;;;;;;;;;15.20;99.90;;;;;;5094212;28;19916;-67
2023/05/10 09:57:00;;;;;;;;;;;15.20;99.90;;;;;;5094462;28;20360;-67
2023/05/10 09:59:27;;;;;;;;;;;15.10;99.90;;;;;;5094665;28;19928;-68
2023/05/10 10:01:58;;;;;;;;;;;15.10;99.90;;;;;;5094155;28;19962;-67
2023/05/10 10:04:24;;;;;;;;;;;15.10;99.90;;;;;;5093900;28;19916;-67
2023/05/10 10:07:01;;;;;;;;;;;15.00;99.90;;;;;;5093780;28;20276;-69
2023/05/10 10:09:28;;;;;;;;;;;15.00;99.90;;;;;;5094323;28;20384;-67
2023/05/10 10:11:55;;;;;;;;;;;15.00;99.90;;;;;;5094321;28;19908;-66
2023/05/10 10:14:22;;;;;;;;;;;14.90;99.90;;;;;;5076430;28;19915;-69
2023/05/10 10:16:49;;;;;;;;;;;14.90;99.90;;;;;;5093528;28;20343;-65
2023/05/10 10:19:17;;;;;;;;;;;14.90;99.90;;;;;;5089712;28;19923;-67
2023/05/10 10:21:43;;;;;;;;;;;14.90;99.90;;;;;;5093402;28;19913;-68
2023/05/10 10:24:10;;;;;;;;;;;14.90;99.90;;;;;;5094066;28;20357;-67
2023/05/10 10:26:42;;;;;;;;;;;14.80;99.90;;;;;;5093069;28;19908;-68
2023/05/10 10:29:24;;;;;;;;;;;14.80;99.90;;;;;;5102703;28;20289;-68
2023/05/10 10:31:55;;;;;;;;;;;14.70;99.90;;;;;;5093187;28;19909;-66
2023/05/10 10:34:29;;;;;;;;;;;14.60;99.90;;;;;;5110467;28;19989;-68
2023/05/10 10:36:56;;;;;;;;;;;14.60;99.90;;;;;;5092125;28;19916;-67
2023/05/10 10:39:27;;;;;;;;;;;14.60;99.90;;;;;;5092473;28;19923;-68
2023/05/10 10:41:54;;;;;;;;;;;14.50;99.90;;;;;;5091890;28;19926;-68
2023/05/10 10:44:37;;;;;;;;;;;14.50;99.90;;;;;;5093327;28;19915;-68
2023/05/10 10:47:08;;;;;;;;;;;14.40;99.90;;;;;;5093002;28;19916;-68
2023/05/10 10:49:41;;;;;;;;;;;14.40;99.90;;;;;;5075521;28;20264;-67
2023/05/10 10:52:26;;;;;;;;;;;14.30;99.90;;;;;;5092896;28;19912;-68
2023/05/10 10:54:59;;;;;;;;;;;14.20;99.90;;;;;;5093834;28;19908;-68
2023/05/10 10:57:26;;;;;;;;;;;14.20;99.90;;;;;;5093117;28;19912;-66
2023/05/10 11:00:13;;;;;;;;;;;14.10;99.90;;;;;;5092720;28;19943;-68
2023/05/10 11:02:41;;;;;;;;;;;13.90;99.90;;;;;;5085613;28;19916;-67
2023/05/10 11:05:25;;;;;;;;;;;14.00;99.90;;;;;;5092670;28;19944;-68
2023/05/10 11:07:59;;;;;;;;;;;14.00;99.90;;;;;;5090979;28;20353;-67
2023/05/10 11:10:27;;;;;;;;;;;13.90;99.90;;;;;;5093262;28;19938;-67
2023/05/10 11:12:54;;;;;;;;;;;13.80;99.90;;;;;;5093054;28;19982;-67
2023/05/10 11:15:20;;;;;;;;;;;13.80;99.90;;;;;;5092753;28;19909;-69
2023/05/10 11:17:51;;;;;;;;;;;13.80;99.90;;;;;;5092536;28;20373;-69
2023/05/10 11:20:22;;;;;;;;;;;13.80;99.90;;;;;;5092468;28;19908;-67
2023/05/10 11:22:52;;;;;;;;;;;13.70;99.90;;;;;;5092271;28;19978;-67
2023/05/10 11:25:20;;;;;;;;;;;13.70;99.90;;;;;;5092196;28;19912;-68
2023/05/10 11:27:49;;;;;;;;;;;13.60;99.90;;;;;;5091974;28;19912;-67
2023/05/10 11:30:16;;;;;;;;;;;13.60;99.90;;;;;;5091256;28;19913;-69
2023/05/10 11:32:43;;;;;;;;;;;13.50;99.90;;;;;;5091986;28;19908;-67
2023/05/10 11:35:13;;;;;;;;;;;13.50;99.90;;;;;;5093213;28;19962;-68
2023/05/10 11:37:43;;;;;;;;;;;13.50;99.90;;;;;;5093136;28;19955;-68
2023/05/10 11:40:10;;;;;;;;;;;13.50;99.90;;;;;;5093591;28;19912;-68
2023/05/10 11:42:39;;;;;;;;;;;13.40;99.90;;;;;;5092505;28;20408;-68
2023/05/10 11:45:06;;;;;;;;;;;13.40;99.90;;;;;;5092847;28;19961;-68
2023/05/10 11:47:35;;;;;;;;;;;13.40;99.90;;;;;;5092811;28;19919;-67
2023/05/10 11:50:02;;;;;;;;;;;13.40;99.90;;;;;;5092767;28;19919;-68
2023/05/10 11:52:28;;;;;;;;;;;13.30;99.90;;;;;;5092828;28;19908;-68
2023/05/10 11:54:55;;;;;;;;;;;13.30;99.90;;;;;;5085393;28;19919;-68
2023/05/10 11:57:26;;;;;;;;;;;13.30;99.90;;;;;;5092136;28;19908;-68
2023/05/10 11:59:54;;;;;;;;;;;13.30;99.90;;;;;;5092433;28;20292;-69
2023/05/10 12:02:21;;;;;;;;;;;13.30;99.90;;;;;;5091761;28;19934;-68
2023/05/10 12:04:48;;;;;;;;;;;13.20;99.90;;;;;;5092642;28;19995;-67
2023/05/10 12:07:14;;;;;;;;;;;13.10;99.90;;;;;;5091970;28;19986;-69
2023/05/10 12:09:47;;;;;;;;;;;13.20;99.90;;;;;;5092394;28;19955;-67
2023/05/10 12:12:17;;;;;;;;;;;13.20;99.90;;;;;;5091463;28;19908;-67
2023/05/10 12:14:43;;;;;;;;;;;13.10;99.90;;;;;;5092299;28;20007;-68
2023/05/10 12:17:13;;;;;;;;;;;13.10;99.90;;;;;;5092570;28;19969;-67
2023/05/10 12:19:40;;;;;;;;;;;13.10;99.90;;;;;;5092489;28;19924;-68
2023/05/10 12:22:06;;;;;;;;;;;13.10;99.90;;;;;;5092287;28;19913;-68
2023/05/10 12:24:39;;;;;;;;;;;13.10;99.90;;;;;;5092724;28;20260;-67
2023/05/10 12:27:07;;;;;;;;;;;13.00;99.90;;;;;;5091857;28;19912;-68
2023/05/10 12:29:34;;;;;;;;;;;13.00;99.90;;;;;;5092506;28;19912;-68
2023/05/10 12:32:02;;;;;;;;;;;13.00;99.90;;;;;;5092567;28;19915;-67
2023/05/10 12:34:33;;;;;;;;;;;13.00;99.90;;;;;;5092399;28;19944;-68
2023/05/10 12:37:00;;;;;;;;;;;13.10;99.90;;;;;;5092564;28;20375;-67
2023/05/10 12:39:37;;;;;;;;;;;13.00;99.90;;;;;;5091705;28;20371;-68
2023/05/10 12:42:04;;;;;;;;;;;13.00;99.90;;;;;;5092370;28;19920;-66
2023/05/10 12:44:31;;;;;;;;;;;13.00;99.90;;;;;;5092377;28;20381;-67
2023/05/10 12:46:57;;;;;;;;;;;13.00;99.90;;;;;;5092664;28;19953;-66
2023/05/10 12:49:24;;;;;;;;;;;12.90;99.90;;;;;;5092558;28;19969;-68
2023/05/10 12:51:50;;;;;;;;;;;13.00;99.90;;;;;;5091971;28;19913;-68
2023/05/10 12:54:17;;;;;;;;;;;12.90;99.90;;;;;;5092108;28;19916;-69
2023/05/10 12:56:44;;;;;;;;;;;12.90;99.90;;;;;;5092372;28;19915;-67
2023/05/10 12:59:10;;;;;;;;;;;12.90;99.90;;;;;;5092272;28;20369;-70
2023/05/10 13:01:37;;;;;;;;;;;12.90;99.90;;;;;;5092164;28;19912;-68
2023/05/10 13:04:04;;;;;;;;;;;12.90;99.90;;;;;;5091694;28;20254;-68
2023/05/10 13:06:31;;;;;;;;;;;12.90;99.90;;;;;;5091867;28;19942;-67
2023/05/10 13:08:57;;;;;;;;;;;12.90;99.90;;;;;;5092490;28;19915;-67
2023/05/10 13:11:24;;;;;;;;;;;12.80;99.90;;;;;;5092821;28;20254;-67
2023/05/10 13:13:51;;;;;;;;;;;12.80;99.90;;;;;;5092303;28;19919;-67
2023/05/10 13:16:17;;;;;;;;;;;12.90;99.90;;;;;;5091182;28;19922;-67
2023/05/10 13:18:44;;;;;;;;;;;12.80;99.90;;;;;;5091897;28;19916;-68
2023/05/10 13:21:11;;;;;;;;;;;12.80;99.90;;;;;;5092018;28;20006;-67
2023/05/10 13:23:37;;;;;;;;;;;12.80;99.90;;;;;;5094355;28;19912;-68
2023/05/10 13:26:04;;;;;;;;;;;12.80;99.90;;;;;;5095795;28;20485;-67
2023/05/10 13:28:31;;;;;;;;;;;12.80;99.90;;;;;;5095644;28;19908;-67
2023/05/10 13:30:59;;;;;;;;;;;12.70;99.90;;;;;;5095748;28;19916;-66
2023/05/10 13:33:26;;;;;;;;;;;12.70;99.90;;;;;;5095321;28;20424;-67
2023/05/10 13:35:52;;;;;;;;;;;12.70;99.90;;;;;;5095605;28;19912;-68
2023/05/10 13:38:19;;;;;;;;;;;12.70;99.90;;;;;;5095485;28;20406;-67
2023/05/10 13:40:46;;;;;;;;;;;12.70;99.90;;;;;;5095076;28;19957;-67
2023/05/10 13:43:12;;;;;;;;;;;12.60;99.90;;;;;;5095305;28;20279;-69
2023/05/10 13:45:39;;;;;;;;;;;12.60;99.90;;;;;;5095461;28;20583;-67
2023/05/10 13:48:06;;;;;;;;;;;12.60;99.90;;;;;;5095421;28;19908;-68
2023/05/10 13:50:32;;;;;;;;;;;12.60;99.90;;;;;;5095147;28;19912;-68
2023/05/10 13:52:59;;;;;;;;;;;12.50;99.90;;;;;;5094831;28;19912;-67
2023/05/10 13:55:25;;;;;;;;;;;12.50;99.90;;;;;;5095433;28;19912;-67
2023/05/10 13:57:52;;;;;;;;;;;12.50;99.90;;;;;;5095358;28;19908;-68
2023/05/10 14:00:19;;;;;;;;;;;12.50;99.90;;;;;;5094879;28;20307;-66
2023/05/10 14:02:46;;;;;;;;;;;12.50;99.90;;;;;;5094937;28;19913;-67
2023/05/10 14:05:12;;;;;;;;;;;12.40;99.90;;;;;;5095329;28;20433;-67
2023/05/10 14:07:39;;;;;;;;;;;12.40;99.90;;;;;;5095258;28;19952;-66
2023/05/10 14:10:06;;;;;;;;;;;12.40;99.90;;;;;;5076966;28;19915;-69
2023/05/10 14:12:33;;;;;;;;;;;12.40;99.90;;;;;;5095136;28;19908;-67
2023/05/10 14:15:00;;;;;;;;;;;12.40;99.90;;;;;;5094835;28;19955;-66
2023/05/10 14:17:26;;;;;;;;;;;12.30;99.90;;;;;;5094612;28;19908;-68
2023/05/10 14:19:53;;;;;;;;;;;12.30;99.90;;;;;;5094726;28;20277;-69
2023/05/10 14:22:20;;;;;;;;;;;12.30;99.90;;;;;;5095309;28;20438;-70
2023/05/10 14:24:46;;;;;;;;;;;12.30;99.90;;;;;;5095212;28;19918;-70